Practice 2 - Blue
Course: Road America · 2026-09-05 10:40AM
Weather Conditions
Temp 73°F
(63–73°F range)
Temp type NORMAL
Track DAMP
Precip 0.3 mm (DRIZZLE)
Humidity 88%
Wind 15 km/h
Cloud 100%
OVERALL
BY CLASS
| CLASS | POS | # | NAME | BEST LAP | GAP | INTERVAL | LAPS |
|---|---|---|---|---|---|---|---|
| GTD1 | 1 | 144 | JEFF ROBINS | - | - | - | 0 |
| GTD3 | 1 | 158 | SCOTT GILL | 2:16.609 | - | - | 7 |
| 2 | 111 | NICOLAS GIGUERE | 2:17.462 | 0.853 | 0.853 | 9 | |
| 3 | 751 | CHRIS DOOLEY | 2:17.902 | 1.293 | 0.440 | 7 | |
| 4 | 194 | KEVIN CYR | 2:18.005 | 1.396 | 0.103 | 7 | |
| 5 | 819 | ROBERT GEE | 2:18.884 | 2.275 | 0.879 | 9 | |
| 6 | 581 | MARK COOK | 2:18.929 | 2.320 | 0.045 | 8 | |
| 7 | 888 | JEFF BRETON | 2:19.230 | 2.621 | 0.301 | 8 | |
| 8 | 90 | NICOLE ROBICHAUD | 2:19.973 | 3.364 | 0.743 | 8 | |
| 9 | 171 | LARRY WEXLER | 2:21.406 | 4.797 | 1.433 | 6 | |
| 10 | 747 | BRAD WEBER | 2:21.953 | 5.344 | 0.547 | 8 | |
| 11 | 22 | JOHN EDDLEMON | 2:22.435 | 5.826 | 0.482 | 8 | |
| GTD2 | 1 | 62 | COLIN HAUER | 2:23.171 | - | - | 8 |
| 2 | 14 | ARTHUR SOLTYS | 2:23.980 | 0.809 | 0.809 | 5 | |
| 3 | 60 | DAVID WELLS | 2:25.142 | 1.971 | 1.162 | 6 | |
| 4 | 221 | PIERRE PAQUET | 2:27.242 | 4.071 | 2.100 | 8 | |
| 5 | 109 | RYAN SZYJAKOWSKI | - | - | - | 0 | |
| GTB3 | 1 | 224 | KIERON O'ROURKE | 2:24.112 | - | - | 8 |
| GTB1 | 1 | 9 | ANGUS ROGERS | 2:24.432 | - | - | 8 |
| 2 | 98 | ED DUNNE | 2:24.943 | 0.511 | 0.511 | 8 | |
| 3 | 696 | MIKE ORIGER | 2:24.969 | 0.537 | 0.026 | 7 | |
| 4 | 726 | RUSSEL MARTORANA | 2:26.469 | 2.037 | 1.500 | 8 | |
| 5 | 951 | ANDREW BURKE | 2:28.375 | 3.943 | 1.906 | 8 | |
| 6 | 498 | COLLIN SCHMITZ | 2:31.303 | 6.871 | 2.928 | 7 | |
| 7 | 444 | TONY CLINTON | 2:31.951 | 7.519 | 0.648 | 8 | |
| 8 | 4 | SAM MAMMANO | 2:36.043 | 11.611 | 4.092 | 8 | |
| 9 | 497 | MICHAEL SCHMITZ | 2:41.773 | 17.341 | 5.730 | 6 | |
| GT3 | 1 | 689 | ROBERT BAKER | 2:24.796 | - | - | 8 |
| 2 | 079 | CHARLES LEW | 2:25.354 | 0.558 | 0.558 | 8 | |
| 3 | 199 | BOB VAN ZANT | 2:27.251 | 2.455 | 1.897 | 8 | |
| 4 | 447 | JON DUNSKI | 2:30.740 | 5.944 | 3.489 | 8 | |
| 5 | 127 | STEVE GARRISON | 2:33.306 | 8.510 | 2.566 | 5 | |
| SP997 | 1 | 131 | WESTON JEZEK | 2:25.202 | - | - | 8 |
| SP996 | 1 | 517 | ALEX WILLIAMS | 2:27.647 | - | - | 8 |
| SPC | 1 | 93 | MATT DISTEFANO | 2:30.252 | - | - | 3 |
| 2 | 147 | WALEED CHEHADI | 2:30.816 | 0.564 | 0.564 | 7 | |
| 3 | 39 | TIM LAMBIE | 2:32.163 | 1.911 | 1.347 | 7 | |
| 4 | 556 | DOMINICK BELVEDERE | 2:32.646 | 2.394 | 0.483 | 8 | |
| 5 | 122 | MICHAEL VENABLE | 2:33.241 | 2.989 | 0.595 | 8 | |
| 6 | 719 | TRES DRAWHORN | 2:33.785 | 3.533 | 0.544 | 7 | |
| 7 | 42 | PERRY LOWERY | 2:34.200 | 3.948 | 0.415 | 8 | |
| 8 | 97 | IAN ROGENSKI | 2:34.955 | 4.703 | 0.755 | 6 | |
| 9 | 19 | JASON KNUPP | 2:36.053 | 5.801 | 1.098 | 7 | |
| GT4 | 1 | 5 | PATRICK PERONNET | 2:40.502 | - | - | 7 |
| 2 | 66 | CLAUDIO KAEMPF | - | - | - | 0 | |
Session Notes
2026-09-05 10:45AM:
Transponder
Car #144- No Transponder
Pole Position